sensor_id;sensor_type;location;lat;lon;timestamp;temperature;humidity
22098;DHT22;11215;51.938;8.464;2023-11-21T00:01:26;10.70;78.00
22098;DHT22;11215;51.938;8.464;2023-11-21T00:03:54;10.80;78.10
22098;DHT22;11215;51.938;8.464;2023-11-21T00:06:21;10.80;78.10
22098;DHT22;11215;51.938;8.464;2023-11-21T00:08:48;10.80;78.10
22098;DHT22;11215;51.938;8.464;2023-11-21T00:11:17;10.80;78.10
22098;DHT22;11215;51.938;8.464;2023-11-21T00:13:42;10.90;78.20
22098;DHT22;11215;51.938;8.464;2023-11-21T00:16:09;10.90;78.10
22098;DHT22;11215;51.938;8.464;2023-11-21T00:18:38;10.90;78.10
22098;DHT22;11215;51.938;8.464;2023-11-21T00:21:17;10.90;78.20
22098;DHT22;11215;51.938;8.464;2023-11-21T00:23:43;11.00;78.40
22098;DHT22;11215;51.938;8.464;2023-11-21T00:26:09;11.00;78.10
22098;DHT22;11215;51.938;8.464;2023-11-21T00:28:35;11.00;78.00
22098;DHT22;11215;51.938;8.464;2023-11-21T00:31:02;11.00;78.10
22098;DHT22;11215;51.938;8.464;2023-11-21T00:33:30;11.00;78.10
22098;DHT22;11215;51.938;8.464;2023-11-21T00:35:55;11.00;78.20
22098;DHT22;11215;51.938;8.464;2023-11-21T00:38:22;11.00;78.20
22098;DHT22;11215;51.938;8.464;2023-11-21T00:40:48;11.00;78.20
22098;DHT22;11215;51.938;8.464;2023-11-21T00:43:17;11.00;78.40
22098;DHT22;11215;51.938;8.464;2023-11-21T00:45:43;11.00;78.50
22098;DHT22;11215;51.938;8.464;2023-11-21T00:48:09;11.00;78.50
22098;DHT22;11215;51.938;8.464;2023-11-21T00:50:38;11.00;78.50
22098;DHT22;11215;51.938;8.464;2023-11-21T00:53:03;11.00;78.50
22098;DHT22;11215;51.938;8.464;2023-11-21T00:55:29;11.10;78.50
22098;DHT22;11215;51.938;8.464;2023-11-21T00:57:55;11.00;78.50
22098;DHT22;11215;51.938;8.464;2023-11-21T01:00:24;11.10;78.60
22098;DHT22;11215;51.938;8.464;2023-11-21T01:02:53;11.10;78.60
22098;DHT22;11215;51.938;8.464;2023-11-21T01:05:19;11.10;78.50
22098;DHT22;11215;51.938;8.464;2023-11-21T01:07:45;11.10;78.40
22098;DHT22;11215;51.938;8.464;2023-11-21T01:10:11;11.20;78.40
22098;DHT22;11215;51.938;8.464;2023-11-21T01:12:40;11.20;78.40
22098;DHT22;11215;51.938;8.464;2023-11-21T01:15:07;11.20;78.70
22098;DHT22;11215;51.938;8.464;2023-11-21T01:17:38;11.20;78.60
22098;DHT22;11215;51.938;8.464;2023-11-21T01:20:05;11.20;78.50
22098;DHT22;11215;51.938;8.464;2023-11-21T01:22:36;11.20;78.60
22098;DHT22;11215;51.938;8.464;2023-11-21T01:25:04;11.20;78.60
22098;DHT22;11215;51.938;8.464;2023-11-21T01:27:36;11.30;78.70
22098;DHT22;11215;51.938;8.464;2023-11-21T01:30:05;11.30;78.70
22098;DHT22;11215;51.938;8.464;2023-11-21T01:32:33;11.30;78.60
22098;DHT22;11215;51.938;8.464;2023-11-21T01:35:05;11.30;78.50
22098;DHT22;11215;51.938;8.464;2023-11-21T01:37:32;11.30;78.50
22098;DHT22;11215;51.938;8.464;2023-11-21T01:40:02;11.30;78.40
22098;DHT22;11215;51.938;8.464;2023-11-21T01:42:30;11.40;78.40
22098;DHT22;11215;51.938;8.464;2023-11-21T01:44:57;11.40;78.30
22098;DHT22;11215;51.938;8.464;2023-11-21T01:47:22;11.40;78.30
22098;DHT22;11215;51.938;8.464;2023-11-21T01:49:52;11.40;78.30
22098;DHT22;11215;51.938;8.464;2023-11-21T01:52:19;11.40;78.40
22098;DHT22;11215;51.938;8.464;2023-11-21T01:54:45;11.40;78.50
22098;DHT22;11215;51.938;8.464;2023-11-21T01:57:13;11.40;78.50
22098;DHT22;11215;51.938;8.464;2023-11-21T01:59:41;11.40;78.60
22098;DHT22;11215;51.938;8.464;2023-11-21T02:02:08;11.40;78.70
22098;DHT22;11215;51.938;8.464;2023-11-21T02:04:35;11.40;78.70
22098;DHT22;11215;51.938;8.464;2023-11-21T02:07:08;11.40;78.70
22098;DHT22;11215;51.938;8.464;2023-11-21T02:09:43;11.50;78.70
22098;DHT22;11215;51.938;8.464;2023-11-21T02:12:12;11.50;78.80
22098;DHT22;11215;51.938;8.464;2023-11-21T02:14:39;11.50;78.70
22098;DHT22;11215;51.938;8.464;2023-11-21T02:17:05;11.50;78.70
22098;DHT22;11215;51.938;8.464;2023-11-21T02:19:32;11.50;78.70
22098;DHT22;11215;51.938;8.464;2023-11-21T02:21:59;11.50;78.60
22098;DHT22;11215;51.938;8.464;2023-11-21T02:24:26;11.60;78.70
22098;DHT22;11215;51.938;8.464;2023-11-21T02:26:52;11.50;78.50
22098;DHT22;11215;51.938;8.464;2023-11-21T02:29:21;11.50;78.50
22098;DHT22;11215;51.938;8.464;2023-11-21T02:31:49;11.50;78.60
22098;DHT22;11215;51.938;8.464;2023-11-21T02:34:16;11.50;78.70
22098;DHT22;11215;51.938;8.464;2023-11-21T02:36:42;11.50;78.80
22098;DHT22;11215;51.938;8.464;2023-11-21T02:39:09;11.50;78.80
22098;DHT22;11215;51.938;8.464;2023-11-21T02:41:36;11.50;78.80
22098;DHT22;11215;51.938;8.464;2023-11-21T02:44:02;11.50;78.80
22098;DHT22;11215;51.938;8.464;2023-11-21T02:46:28;11.50;78.60
22098;DHT22;11215;51.938;8.464;2023-11-21T02:48:53;11.50;78.70
22098;DHT22;11215;51.938;8.464;2023-11-21T02:51:20;11.60;78.70
22098;DHT22;11215;51.938;8.464;2023-11-21T02:53:46;11.60;78.70
22098;DHT22;11215;51.938;8.464;2023-11-21T02:56:14;11.60;78.80
22098;DHT22;11215;51.938;8.464;2023-11-21T02:58:43;11.60;78.70
22098;DHT22;11215;51.938;8.464;2023-11-21T03:01:09;11.60;78.80
22098;DHT22;11215;51.938;8.464;2023-11-21T03:03:42;11.60;78.60
22098;DHT22;11215;51.938;8.464;2023-11-21T03:06:08;11.60;78.70
22098;DHT22;11215;51.938;8.464;2023-11-21T03:08:34;11.60;78.60
22098;DHT22;11215;51.938;8.464;2023-11-21T03:11:00;11.60;78.70
22098;DHT22;11215;51.938;8.464;2023-11-21T03:13:25;11.60;79.40
22098;DHT22;11215;51.938;8.464;2023-11-21T03:15:51;11.60;78.50
22098;DHT22;11215;51.938;8.464;2023-11-21T03:18:17;11.60;78.60
22098;DHT22;11215;51.938;8.464;2023-11-21T03:20:46;11.60;78.60
22098;DHT22;11215;51.938;8.464;2023-11-21T03:23:12;11.60;78.80
22098;DHT22;11215;51.938;8.464;2023-11-21T03:25:37;11.60;78.60
22098;DHT22;11215;51.938;8.464;2023-11-21T03:28:03;11.60;78.70
22098;DHT22;11215;51.938;8.464;2023-11-21T03:30:29;11.60;78.60
22098;DHT22;11215;51.938;8.464;2023-11-21T03:32:55;11.60;78.60
22098;DHT22;11215;51.938;8.464;2023-11-21T03:35:20;11.60;78.70
22098;DHT22;11215;51.938;8.464;2023-11-21T03:37:47;11.60;78.60
22098;DHT22;11215;51.938;8.464;2023-11-21T03:40:12;11.60;78.50
22098;DHT22;11215;51.938;8.464;2023-11-21T03:42:44;11.60;78.70
22098;DHT22;11215;51.938;8.464;2023-11-21T03:45:10;11.60;78.80
22098;DHT22;11215;51.938;8.464;2023-11-21T03:47:37;11.60;78.60
22098;DHT22;11215;51.938;8.464;2023-11-21T03:50:03;11.60;78.60
22098;DHT22;11215;51.938;8.464;2023-11-21T03:52:30;11.60;78.60
22098;DHT22;11215;51.938;8.464;2023-11-21T03:54:56;11.60;78.60
22098;DHT22;11215;51.938;8.464;2023-11-21T03:57:21;11.60;78.50
22098;DHT22;11215;51.938;8.464;2023-11-21T03:59:47;11.60;78.60
22098;DHT22;11215;51.938;8.464;2023-11-21T04:02:13;11.60;78.50
22098;DHT22;11215;51.938;8.464;2023-11-21T04:04:38;11.60;78.50
22098;DHT22;11215;51.938;8.464;2023-11-21T04:07:05;11.60;78.60
22098;DHT22;11215;51.938;8.464;2023-11-21T04:09:30;11.60;78.50
22098;DHT22;11215;51.938;8.464;2023-11-21T04:11:56;11.60;78.30
22098;DHT22;11215;51.938;8.464;2023-11-21T04:14:22;11.60;78.50
22098;DHT22;11215;51.938;8.464;2023-11-21T04:16:48;11.60;78.60
22098;DHT22;11215;51.938;8.464;2023-11-21T04:19:14;11.60;78.50
22098;DHT22;11215;51.938;8.464;2023-11-21T04:21:41;11.60;78.70
22098;DHT22;11215;51.938;8.464;2023-11-21T04:24:07;11.60;78.60
22098;DHT22;11215;51.938;8.464;2023-11-21T04:26:33;11.60;78.30
22098;DHT22;11215;51.938;8.464;2023-11-21T04:28:59;11.60;78.30
22098;DHT22;11215;51.938;8.464;2023-11-21T04:31:24;11.60;78.70
22098;DHT22;11215;51.938;8.464;2023-11-21T04:33:51;11.60;78.70
22098;DHT22;11215;51.938;8.464;2023-11-21T04:36:17;11.60;78.90
22098;DHT22;11215;51.938;8.464;2023-11-21T04:38:44;11.60;78.80
22098;DHT22;11215;51.938;8.464;2023-11-21T04:41:10;11.60;78.70
22098;DHT22;11215;51.938;8.464;2023-11-21T04:43:41;11.60;78.70
22098;DHT22;11215;51.938;8.464;2023-11-21T04:46:09;11.60;78.70
22098;DHT22;11215;51.938;8.464;2023-11-21T04:48:38;11.60;78.60
22098;DHT22;11215;51.938;8.464;2023-11-21T04:51:05;11.60;78.80
22098;DHT22;11215;51.938;8.464;2023-11-21T04:53:34;11.60;78.70
22098;DHT22;11215;51.938;8.464;2023-11-21T04:56:00;11.60;78.80
22098;DHT22;11215;51.938;8.464;2023-11-21T04:58:29;11.60;78.60
22098;DHT22;11215;51.938;8.464;2023-11-21T05:00:59;11.60;78.70
22098;DHT22;11215;51.938;8.464;2023-11-21T05:03:25;11.60;78.70
22098;DHT22;11215;51.938;8.464;2023-11-21T05:05:55;11.60;78.60
22098;DHT22;11215;51.938;8.464;2023-11-21T05:08:22;11.60;78.60
22098;DHT22;11215;51.938;8.464;2023-11-21T05:10:48;11.60;78.80
22098;DHT22;11215;51.938;8.464;2023-11-21T05:13:15;11.60;78.80
22098;DHT22;11215;51.938;8.464;2023-11-21T05:15:44;11.60;78.70
22098;DHT22;11215;51.938;8.464;2023-11-21T05:18:11;11.60;78.70
22098;DHT22;11215;51.938;8.464;2023-11-21T05:20:39;11.60;78.60
22098;DHT22;11215;51.938;8.464;2023-11-21T05:23:07;11.60;78.60
22098;DHT22;11215;51.938;8.464;2023-11-21T05:25:34;11.60;78.40
22098;DHT22;11215;51.938;8.464;2023-11-21T05:28:00;11.60;78.30
22098;DHT22;11215;51.938;8.464;2023-11-21T05:30:32;11.50;78.50
22098;DHT22;11215;51.938;8.464;2023-11-21T05:33:00;11.50;78.40
22098;DHT22;11215;51.938;8.464;2023-11-21T05:35:28;11.50;78.50
22098;DHT22;11215;51.938;8.464;2023-11-21T05:37:58;11.50;78.60
22098;DHT22;11215;51.938;8.464;2023-11-21T05:40:29;11.50;78.40
22098;DHT22;11215;51.938;8.464;2023-11-21T05:42:57;11.50;78.50
22098;DHT22;11215;51.938;8.464;2023-11-21T05:45:25;11.60;78.50
22098;DHT22;11215;51.938;8.464;2023-11-21T05:47:51;11.50;78.50
22098;DHT22;11215;51.938;8.464;2023-11-21T05:50:18;11.50;78.60
22098;DHT22;11215;51.938;8.464;2023-11-21T05:52:47;11.50;78.60
22098;DHT22;11215;51.938;8.464;2023-11-21T05:55:17;11.50;78.60
22098;DHT22;11215;51.938;8.464;2023-11-21T05:57:48;11.50;78.60
22098;DHT22;11215;51.938;8.464;2023-11-21T06:00:15;11.50;78.70
22098;DHT22;11215;51.938;8.464;2023-11-21T06:02:53;11.50;78.60
22098;DHT22;11215;51.938;8.464;2023-11-21T06:05:22;11.50;78.50
22098;DHT22;11215;51.938;8.464;2023-11-21T06:07:50;11.50;78.50
22098;DHT22;11215;51.938;8.464;2023-11-21T06:10:20;11.50;78.50
22098;DHT22;11215;51.938;8.464;2023-11-21T06:12:47;11.50;78.60
22098;DHT22;11215;51.938;8.464;2023-11-21T06:15:14;11.50;78.60
22098;DHT22;11215;51.938;8.464;2023-11-21T06:17:50;11.50;78.60
22098;DHT22;11215;51.938;8.464;2023-11-21T06:20:20;11.50;78.60
22098;DHT22;11215;51.938;8.464;2023-11-21T06:22:49;11.50;78.60
22098;DHT22;11215;51.938;8.464;2023-11-21T06:25:16;11.50;78.70
22098;DHT22;11215;51.938;8.464;2023-11-21T06:27:44;11.50;78.80
22098;DHT22;11215;51.938;8.464;2023-11-21T06:30:15;11.50;78.80
22098;DHT22;11215;51.938;8.464;2023-11-21T06:32:42;11.50;78.80
22098;DHT22;11215;51.938;8.464;2023-11-21T06:35:29;11.50;78.90
22098;DHT22;11215;51.938;8.464;2023-11-21T06:37:58;11.50;78.80
22098;DHT22;11215;51.938;8.464;2023-11-21T06:40:24;11.50;78.80
22098;DHT22;11215;51.938;8.464;2023-11-21T06:42:53;11.50;78.60
22098;DHT22;11215;51.938;8.464;2023-11-21T06:45:19;11.50;78.70
22098;DHT22;11215;51.938;8.464;2023-11-21T06:47:48;11.50;78.60
22098;DHT22;11215;51.938;8.464;2023-11-21T06:50:15;11.40;78.60
22098;DHT22;11215;51.938;8.464;2023-11-21T06:52:41;11.40;78.80
22098;DHT22;11215;51.938;8.464;2023-11-21T06:55:07;11.40;78.90
22098;DHT22;11215;51.938;8.464;2023-11-21T06:57:36;11.40;79.10
22098;DHT22;11215;51.938;8.464;2023-11-21T07:00:04;11.40;79.20
22098;DHT22;11215;51.938;8.464;2023-11-21T07:02:31;11.40;79.30
22098;DHT22;11215;51.938;8.464;2023-11-21T07:04:57;11.40;79.20
22098;DHT22;11215;51.938;8.464;2023-11-21T07:07:23;11.40;79.30
22098;DHT22;11215;51.938;8.464;2023-11-21T07:09:49;11.40;79.20
22098;DHT22;11215;51.938;8.464;2023-11-21T07:12:15;11.40;79.20
22098;DHT22;11215;51.938;8.464;2023-11-21T07:14:41;11.40;79.40
22098;DHT22;11215;51.938;8.464;2023-11-21T07:17:12;11.30;79.40
22098;DHT22;11215;51.938;8.464;2023-11-21T07:19:39;11.40;79.40
22098;DHT22;11215;51.938;8.464;2023-11-21T07:22:05;11.30;79.40
22098;DHT22;11215;51.938;8.464;2023-11-21T07:24:32;11.30;79.50
22098;DHT22;11215;51.938;8.464;2023-11-21T07:26:58;11.30;79.50
22098;DHT22;11215;51.938;8.464;2023-11-21T07:29:24;11.30;79.70
22098;DHT22;11215;51.938;8.464;2023-11-21T07:31:55;11.30;79.70
22098;DHT22;11215;51.938;8.464;2023-11-21T07:34:21;11.30;79.60
22098;DHT22;11215;51.938;8.464;2023-11-21T07:36:50;11.30;79.80
22098;DHT22;11215;51.938;8.464;2023-11-21T07:39:16;11.30;79.80
22098;DHT22;11215;51.938;8.464;2023-11-21T07:41:42;11.20;79.70
22098;DHT22;11215;51.938;8.464;2023-11-21T07:44:14;11.20;79.90
22098;DHT22;11215;51.938;8.464;2023-11-21T07:46:41;11.30;80.10
22098;DHT22;11215;51.938;8.464;2023-11-21T07:49:06;11.20;79.90
22098;DHT22;11215;51.938;8.464;2023-11-21T07:51:32;11.20;80.00
22098;DHT22;11215;51.938;8.464;2023-11-21T07:53:58;11.20;80.10
22098;DHT22;11215;51.938;8.464;2023-11-21T07:56:24;11.20;80.20
22098;DHT22;11215;51.938;8.464;2023-11-21T07:58:50;11.10;80.20
22098;DHT22;11215;51.938;8.464;2023-11-21T08:01:16;11.10;80.40
22098;DHT22;11215;51.938;8.464;2023-11-21T08:03:42;11.10;80.60
22098;DHT22;11215;51.938;8.464;2023-11-21T08:06:09;11.10;80.60
22098;DHT22;11215;51.938;8.464;2023-11-21T08:08:35;11.10;80.80
22098;DHT22;11215;51.938;8.464;2023-11-21T08:11:01;11.10;80.80
22098;DHT22;11215;51.938;8.464;2023-11-21T08:13:29;11.10;80.80
22098;DHT22;11215;51.938;8.464;2023-11-21T08:15:58;11.10;80.90
22098;DHT22;11215;51.938;8.464;2023-11-21T08:18:30;11.20;80.90
22098;DHT22;11215;51.938;8.464;2023-11-21T08:20:56;11.10;80.90
22098;DHT22;11215;51.938;8.464;2023-11-21T08:23:28;11.10;81.10
22098;DHT22;11215;51.938;8.464;2023-11-21T08:25:55;11.20;81.30
22098;DHT22;11215;51.938;8.464;2023-11-21T08:28:21;11.20;81.10
22098;DHT22;11215;51.938;8.464;2023-11-21T08:30:53;11.20;81.20
22098;DHT22;11215;51.938;8.464;2023-11-21T08:33:19;11.20;81.20
22098;DHT22;11215;51.938;8.464;2023-11-21T08:35:45;11.20;81.20
22098;DHT22;11215;51.938;8.464;2023-11-21T08:38:12;11.20;81.20
22098;DHT22;11215;51.938;8.464;2023-11-21T08:40:38;11.10;81.40
22098;DHT22;11215;51.938;8.464;2023-11-21T08:43:04;11.20;81.40
22098;DHT22;11215;51.938;8.464;2023-11-21T08:45:34;11.20;81.50
22098;DHT22;11215;51.938;8.464;2023-11-21T08:48:03;11.20;81.50
22098;DHT22;11215;51.938;8.464;2023-11-21T08:50:29;11.20;81.40
22098;DHT22;11215;51.938;8.464;2023-11-21T08:52:55;11.20;81.20
22098;DHT22;11215;51.938;8.464;2023-11-21T08:55:21;11.20;81.20
22098;DHT22;11215;51.938;8.464;2023-11-21T08:57:47;11.10;81.20
22098;DHT22;11215;51.938;8.464;2023-11-21T09:00:14;11.10;81.20
22098;DHT22;11215;51.938;8.464;2023-11-21T09:02:43;11.10;81.40
22098;DHT22;11215;51.938;8.464;2023-11-21T09:05:10;11.10;81.40
22098;DHT22;11215;51.938;8.464;2023-11-21T09:07:37;11.10;81.40
22098;DHT22;11215;51.938;8.464;2023-11-21T09:10:04;11.10;81.40
22098;DHT22;11215;51.938;8.464;2023-11-21T09:12:33;11.10;81.60
22098;DHT22;11215;51.938;8.464;2023-11-21T09:15:05;11.10;81.60
22098;DHT22;11215;51.938;8.464;2023-11-21T09:17:32;11.10;81.80
22098;DHT22;11215;51.938;8.464;2023-11-21T09:19:58;11.10;81.90
22098;DHT22;11215;51.938;8.464;2023-11-21T09:22:25;11.10;81.90
22098;DHT22;11215;51.938;8.464;2023-11-21T09:24:54;11.10;82.10
22098;DHT22;11215;51.938;8.464;2023-11-21T09:27:22;11.10;82.30
22098;DHT22;11215;51.938;8.464;2023-11-21T09:29:47;11.10;82.10
22098;DHT22;11215;51.938;8.464;2023-11-21T09:32:14;11.10;82.20
22098;DHT22;11215;51.938;8.464;2023-11-21T09:34:44;11.10;82.30
22098;DHT22;11215;51.938;8.464;2023-11-21T09:37:10;11.20;82.40
22098;DHT22;11215;51.938;8.464;2023-11-21T09:39:36;11.20;82.40
22098;DHT22;11215;51.938;8.464;2023-11-21T09:42:08;11.20;82.40
22098;DHT22;11215;51.938;8.464;2023-11-21T09:47:10;11.20;82.80
22098;DHT22;11215;51.938;8.464;2023-11-21T09:49:39;11.30;82.80
22098;DHT22;11215;51.938;8.464;2023-11-21T09:52:09;11.30;82.80
22098;DHT22;11215;51.938;8.464;2023-11-21T09:54:40;11.30;83.00
22098;DHT22;11215;51.938;8.464;2023-11-21T09:57:06;11.30;82.80
22098;DHT22;11215;51.938;8.464;2023-11-21T09:59:32;11.40;82.90
22098;DHT22;11215;51.938;8.464;2023-11-21T10:01:58;11.40;82.90
22098;DHT22;11215;51.938;8.464;2023-11-21T10:04:25;11.40;83.00
22098;DHT22;11215;51.938;8.464;2023-11-21T10:06:53;11.50;83.00
22098;DHT22;11215;51.938;8.464;2023-11-21T10:09:19;11.50;83.10
22098;DHT22;11215;51.938;8.464;2023-11-21T10:11:47;11.50;83.00
22098;DHT22;11215;51.938;8.464;2023-11-21T10:14:19;11.50;83.00
22098;DHT22;11215;51.938;8.464;2023-11-21T10:16:48;11.60;83.20
22098;DHT22;11215;51.938;8.464;2023-11-21T10:19:14;11.60;82.80
22098;DHT22;11215;51.938;8.464;2023-11-21T10:21:44;11.60;82.70
22098;DHT22;11215;51.938;8.464;2023-11-21T10:24:10;11.60;82.60
22098;DHT22;11215;51.938;8.464;2023-11-21T10:26:38;11.60;82.50
22098;DHT22;11215;51.938;8.464;2023-11-21T10:29:04;11.60;82.60
22098;DHT22;11215;51.938;8.464;2023-11-21T10:31:33;11.60;82.60
22098;DHT22;11215;51.938;8.464;2023-11-21T10:36:41;11.70;82.80
22098;DHT22;11215;51.938;8.464;2023-11-21T10:39:07;11.70;82.30
22098;DHT22;11215;51.938;8.464;2023-11-21T10:41:35;11.70;82.40
22098;DHT22;11215;51.938;8.464;2023-11-21T10:44:01;11.70;82.40
22098;DHT22;11215;51.938;8.464;2023-11-21T10:46:33;11.70;82.40
22098;DHT22;11215;51.938;8.464;2023-11-21T10:49:00;11.70;82.30
22098;DHT22;11215;51.938;8.464;2023-11-21T10:51:26;11.70;82.30
22098;DHT22;11215;51.938;8.464;2023-11-21T10:53:56;11.70;82.20
22098;DHT22;11215;51.938;8.464;2023-11-21T10:56:23;11.70;82.50
22098;DHT22;11215;51.938;8.464;2023-11-21T10:58:55;11.60;82.40
22098;DHT22;11215;51.938;8.464;2023-11-21T11:01:25;11.60;82.30
22098;DHT22;11215;51.938;8.464;2023-11-21T11:03:55;11.60;82.50
22098;DHT22;11215;51.938;8.464;2023-11-21T11:06:21;11.60;83.20
22098;DHT22;11215;51.938;8.464;2023-11-21T11:08:49;11.70;82.60
22098;DHT22;11215;51.938;8.464;2023-11-21T11:11:15;11.70;82.60
22098;DHT22;11215;51.938;8.464;2023-11-21T11:13:43;11.70;82.30
22098;DHT22;11215;51.938;8.464;2023-11-21T11:16:12;11.70;82.30
22098;DHT22;11215;51.938;8.464;2023-11-21T11:18:42;11.70;82.10
22098;DHT22;11215;51.938;8.464;2023-11-21T11:21:32;11.70;81.90
22098;DHT22;11215;51.938;8.464;2023-11-21T11:32:50;11.60;82.00
22098;DHT22;11215;51.938;8.464;2023-11-21T11:35:33;11.60;82.30
22098;DHT22;11215;51.938;8.464;2023-11-21T11:38:01;11.50;82.40
22098;DHT22;11215;51.938;8.464;2023-11-21T11:40:39;11.60;82.10
22098;DHT22;11215;51.938;8.464;2023-11-21T11:43:06;11.50;82.20
22098;DHT22;11215;51.938;8.464;2023-11-21T11:45:33;11.50;82.00
22098;DHT22;11215;51.938;8.464;2023-11-21T11:48:06;11.50;81.90
22098;DHT22;11215;51.938;8.464;2023-11-21T11:50:31;11.50;82.00
22098;DHT22;11215;51.938;8.464;2023-11-21T11:53:13;11.50;81.90
22098;DHT22;11215;51.938;8.464;2023-11-21T11:55:39;11.50;81.90
22098;DHT22;11215;51.938;8.464;2023-11-21T11:58:06;11.50;81.70
22098;DHT22;11215;51.938;8.464;2023-11-21T12:00:33;11.50;81.70
22098;DHT22;11215;51.938;8.464;2023-11-21T12:03:04;11.50;81.70
22098;DHT22;11215;51.938;8.464;2023-11-21T12:05:32;11.50;81.90
22098;DHT22;11215;51.938;8.464;2023-11-21T12:08:02;11.50;81.80
22098;DHT22;11215;51.938;8.464;2023-11-21T12:10:36;11.50;81.70
22098;DHT22;11215;51.938;8.464;2023-11-21T12:13:09;11.50;81.60
22098;DHT22;11215;51.938;8.464;2023-11-21T12:15:36;11.50;81.40
22098;DHT22;11215;51.938;8.464;2023-11-21T12:18:03;11.40;81.30
22098;DHT22;11215;51.938;8.464;2023-11-21T12:20:37;11.40;81.10
22098;DHT22;11215;51.938;8.464;2023-11-21T12:23:12;11.40;81.00
22098;DHT22;11215;51.938;8.464;2023-11-21T12:25:40;11.40;81.00
22098;DHT22;11215;51.938;8.464;2023-11-21T12:28:07;11.40;80.80
22098;DHT22;11215;51.938;8.464;2023-11-21T12:30:34;11.40;80.80
22098;DHT22;11215;51.938;8.464;2023-11-21T12:33:04;11.40;80.80
22098;DHT22;11215;51.938;8.464;2023-11-21T12:35:34;11.40;80.90
22098;DHT22;11215;51.938;8.464;2023-11-21T12:38:01;11.40;80.80
22098;DHT22;11215;51.938;8.464;2023-11-21T12:40:34;11.30;80.70
22098;DHT22;11215;51.938;8.464;2023-11-21T12:43:00;11.30;81.40
22098;DHT22;11215;51.938;8.464;2023-11-21T12:45:29;11.30;80.60
22098;DHT22;11215;51.938;8.464;2023-11-21T12:48:06;11.30;80.60
22098;DHT22;11215;51.938;8.464;2023-11-21T12:50:38;11.30;80.40
22098;DHT22;11215;51.938;8.464;2023-11-21T12:53:09;11.30;80.20
22098;DHT22;11215;51.938;8.464;2023-11-21T12:55:36;11.30;80.20
22098;DHT22;11215;51.938;8.464;2023-11-21T12:58:04;11.30;80.20
22098;DHT22;11215;51.938;8.464;2023-11-21T13:00:39;11.30;80.30
22098;DHT22;11215;51.938;8.464;2023-11-21T13:03:06;11.30;80.30
22098;DHT22;11215;51.938;8.464;2023-11-21T13:05:37;11.30;80.50
22098;DHT22;11215;51.938;8.464;2023-11-21T13:08:08;11.30;80.50
22098;DHT22;11215;51.938;8.464;2023-11-21T13:10:41;11.30;80.50
22098;DHT22;11215;51.938;8.464;2023-11-21T13:13:11;11.30;80.50
22098;DHT22;11215;51.938;8.464;2023-11-21T13:15:54;11.30;80.50
22098;DHT22;11215;51.938;8.464;2023-11-21T13:18:23;11.30;80.20
22098;DHT22;11215;51.938;8.464;2023-11-21T13:20:54;11.40;80.30
22098;DHT22;11215;51.938;8.464;2023-11-21T13:23:21;11.30;80.20
22098;DHT22;11215;51.938;8.464;2023-11-21T13:25:49;11.30;80.90
22098;DHT22;11215;51.938;8.464;2023-11-21T13:28:16;11.40;80.00
22098;DHT22;11215;51.938;8.464;2023-11-21T13:30:43;11.40;79.50
22098;DHT22;11215;51.938;8.464;2023-11-21T13:33:10;11.40;79.40
22098;DHT22;11215;51.938;8.464;2023-11-21T13:35:43;11.40;79.40
22098;DHT22;11215;51.938;8.464;2023-11-21T13:38:15;11.30;79.50
22098;DHT22;11215;51.938;8.464;2023-11-21T13:40:51;11.40;79.50
22098;DHT22;11215;51.938;8.464;2023-11-21T13:43:21;11.40;79.30
22098;DHT22;11215;51.938;8.464;2023-11-21T13:45:49;11.30;80.00
22098;DHT22;11215;51.938;8.464;2023-11-21T13:48:30;11.30;79.10
22098;DHT22;11215;51.938;8.464;2023-11-21T13:51:11;11.30;79.20
22098;DHT22;11215;51.938;8.464;2023-11-21T13:53:47;11.30;79.10
22098;DHT22;11215;51.938;8.464;2023-11-21T13:56:15;11.30;79.10
22098;DHT22;11215;51.938;8.464;2023-11-21T13:58:45;11.30;79.10
22098;DHT22;11215;51.938;8.464;2023-11-21T14:01:18;11.30;78.90
22098;DHT22;11215;51.938;8.464;2023-11-21T14:04:00;11.30;78.90
22098;DHT22;11215;51.938;8.464;2023-11-21T14:06:50;11.30;78.90
22098;DHT22;11215;51.938;8.464;2023-11-21T14:09:22;11.30;78.80
22098;DHT22;11215;51.938;8.464;2023-11-21T14:11:55;11.30;78.60
22098;DHT22;11215;51.938;8.464;2023-11-21T14:14:26;11.30;78.50
22098;DHT22;11215;51.938;8.464;2023-11-21T14:16:53;11.30;78.50
22098;DHT22;11215;51.938;8.464;2023-11-21T14:19:19;11.30;78.40
22098;DHT22;11215;51.938;8.464;2023-11-21T14:21:46;11.20;78.20
22098;DHT22;11215;51.938;8.464;2023-11-21T14:24:12;11.20;78.40
22098;DHT22;11215;51.938;8.464;2023-11-21T14:26:40;11.20;78.20
22098;DHT22;11215;51.938;8.464;2023-11-21T14:29:06;11.20;78.10
22098;DHT22;11215;51.938;8.464;2023-11-21T14:31:33;11.20;78.00
22098;DHT22;11215;51.938;8.464;2023-11-21T14:33:59;11.20;78.10
22098;DHT22;11215;51.938;8.464;2023-11-21T14:36:28;11.20;78.20
22098;DHT22;11215;51.938;8.464;2023-11-21T14:38:53;11.20;78.20
22098;DHT22;11215;51.938;8.464;2023-11-21T14:41:19;11.20;78.20
22098;DHT22;11215;51.938;8.464;2023-11-21T14:43:45;11.20;78.20
22098;DHT22;11215;51.938;8.464;2023-11-21T14:46:15;11.20;78.10
22098;DHT22;11215;51.938;8.464;2023-11-21T14:48:43;11.30;78.10
22098;DHT22;11215;51.938;8.464;2023-11-21T14:51:09;11.20;78.00
22098;DHT22;11215;51.938;8.464;2023-11-21T14:53:37;11.20;77.90
22098;DHT22;11215;51.938;8.464;2023-11-21T14:56:10;11.20;77.90
22098;DHT22;11215;51.938;8.464;2023-11-21T14:58:36;11.20;77.80
22098;DHT22;11215;51.938;8.464;2023-11-21T15:01:04;11.10;77.70
22098;DHT22;11215;51.938;8.464;2023-11-21T15:03:33;11.10;77.80
22098;DHT22;11215;51.938;8.464;2023-11-21T15:06:03;11.10;77.90
22098;DHT22;11215;51.938;8.464;2023-11-21T15:08:50;11.10;77.90
22098;DHT22;11215;51.938;8.464;2023-11-21T15:11:29;11.10;77.80
22098;DHT22;11215;51.938;8.464;2023-11-21T15:13:57;11.10;77.30
22098;DHT22;11215;51.938;8.464;2023-11-21T15:16:23;11.10;77.50
22098;DHT22;11215;51.938;8.464;2023-11-21T15:18:52;11.00;77.20
22098;DHT22;11215;51.938;8.464;2023-11-21T15:21:19;11.00;77.00
22098;DHT22;11215;51.938;8.464;2023-11-21T15:23:47;11.00;76.90
22098;DHT22;11215;51.938;8.464;2023-11-21T15:26:13;11.00;76.90
22098;DHT22;11215;51.938;8.464;2023-11-21T15:28:39;10.90;76.70
22098;DHT22;11215;51.938;8.464;2023-11-21T15:31:05;10.90;76.70
22098;DHT22;11215;51.938;8.464;2023-11-21T15:33:32;10.90;76.80
22098;DHT22;11215;51.938;8.464;2023-11-21T15:36:04;10.90;76.90
22098;DHT22;11215;51.938;8.464;2023-11-21T15:38:30;10.80;76.90
22098;DHT22;11215;51.938;8.464;2023-11-21T15:40:56;10.80;77.00
22098;DHT22;11215;51.938;8.464;2023-11-21T15:43:27;10.80;76.90
22098;DHT22;11215;51.938;8.464;2023-11-21T15:45:54;10.80;76.90
22098;DHT22;11215;51.938;8.464;2023-11-21T15:48:21;10.80;77.10
22098;DHT22;11215;51.938;8.464;2023-11-21T15:50:50;10.80;77.10